»·PEaware :: AAL72 YSSY-KLAX

AAL72 :: YSSY-KLAX

FLIGHT INFORMATION

Flight Status: Arrived
Operator:
American Airlines
More flights by this operator :: More flights under this callsign
Pilot: Leighton T. (7520)
Aircraft: BOEING 777-300
(B773)
More flights by this aircraft type
Origin: YSSY Kingsford Smith Intl
Australia
Destination: KLAX Los Angeles Intl
United States
More flights between these airports :: More routes between these airports
Route: +NOBAR B450 LHI/N0490F310 B450 TEKEP 30S170E 29S175E 27S180E 25S175W 20S169W/N0500F330 15S164W 10S161W 05S158W 00N154W 05N150W/N0490F350 10N147W 15N144W 20N139W 23N135W 26N130W/N0480F370 FICKY ROSIN BUFIE4
File this flight plan on PilotEdge
Remarks:
Altitude:
(Current/Filed)
29,000ft
Speed:
(Current/Filed)
280kts
Departed: 02-Jul-16 04:39 AM
Arrived: 02-Jul-16 05:53 PM
Distance/Time
Traveled:
6508nm/13:13
Distance/Time
To Go:
Arrived

Flight Plot

Page will automatically refresh every two minutes.

Flight plan parsing failed; only flown route is shown


Map Options




Map Legend


Flown Route
Filed Route
Departure Airport
Arrival Airport
Navaid (VOR, NDB)
Fix

Horizontal Profiles

Position Reports

Time Latitude Longitude Heading Altitude Ground
Speed
02-Jul-16 04:14 -33.934015 151.167742 258 34ft 0kts
02-Jul-16 04:15 -33.934015 151.167742 258 34ft 0kts
02-Jul-16 04:16 -33.934015 151.167742 258 34ft 0kts
02-Jul-16 04:17 -33.934015 151.167742 258 34ft 0kts
02-Jul-16 04:18 -33.934015 151.167742 258 34ft 0kts
02-Jul-16 04:19 -33.934015 151.167742 258 34ft 0kts
02-Jul-16 04:20 -33.934015 151.167742 258 34ft 0kts
02-Jul-16 04:21 -33.934015 151.167742 258 34ft 0kts
02-Jul-16 04:22 -33.934015 151.167742 258 34ft 0kts
02-Jul-16 04:23 -33.934015 151.167742 258 34ft 0kts
02-Jul-16 04:24 -33.934015 151.167742 258 34ft 0kts
02-Jul-16 04:25 -33.934015 151.167742 258 34ft 0kts
02-Jul-16 04:26 -33.934015 151.167742 258 34ft 0kts
02-Jul-16 04:27 -33.934015 151.167742 258 34ft 0kts
02-Jul-16 04:28 -33.934015 151.167742 258 34ft 0kts
02-Jul-16 04:29 -33.934015 151.167742 258 34ft 0kts
02-Jul-16 04:30 -33.933905 151.168386 258 34ft 2kts
02-Jul-16 04:31 -33.933834 151.168801 258 34ft 0kts
02-Jul-16 04:32 -33.933834 151.168801 258 34ft 0kts
02-Jul-16 04:33 -33.932150 151.169196 26 34ft 18kts
02-Jul-16 04:34 -33.929906 151.171643 150 34ft 9kts
02-Jul-16 04:35 -33.958838 151.178948 169 274ft 193kts
02-Jul-16 04:36 -34.009589 151.204792 121 2259ft 240kts
02-Jul-16 04:37 -33.990975 151.290683 61 4133ft 307kts
02-Jul-16 04:38 -33.946264 151.389099 61 6951ft 353kts
02-Jul-16 04:39 -33.897520 151.496843 62 10120ft 380kts
02-Jul-16 04:40 -33.844706 151.612094 62 12560ft 401kts
02-Jul-16 04:41 -33.790051 151.732797 66 14849ft 417kts
02-Jul-16 04:42 -33.749591 151.865448 74 16914ft 430kts
02-Jul-16 04:43 -33.711751 152.004703 73 18904ft 444kts
02-Jul-16 04:44 -33.671807 152.147238 74 20819ft 454kts
02-Jul-16 04:45 -33.631658 152.292153 74 22502ft 465kts
02-Jul-16 04:46 -33.589395 152.442008 73 24032ft 477kts
02-Jul-16 04:47 -33.546060 152.594552 73 25433ft 488kts
02-Jul-16 04:48 -33.501719 152.749766 73 26707ft 498kts
02-Jul-16 04:49 -33.456029 152.908832 73 27902ft 507kts
02-Jul-16 04:50 -33.409611 153.069546 73 28966ft 515kts
02-Jul-16 04:51 -33.362261 153.232575 74 29858ft 523kts
02-Jul-16 04:52 -33.314183 153.397190 74 31020ft 520kts
02-Jul-16 04:53 -33.266222 153.560492 73 31372ft 520kts
02-Jul-16 04:54 -33.217958 153.723915 73 31375ft 521kts
02-Jul-16 04:55 -33.169434 153.887318 73 31375ft 521kts
02-Jul-16 04:56 -33.120899 154.049891 73 31374ft 520kts
02-Jul-16 04:57 -33.072029 154.212649 73 31374ft 520kts
02-Jul-16 04:58 -33.023122 154.374679 72 31374ft 520kts
02-Jul-16 04:59 -32.973811 154.537176 72 31373ft 521kts
02-Jul-16 05:00 -32.924461 154.699905 72 31373ft 521kts
02-Jul-16 05:01 -32.874437 154.862253 72 31372ft 521kts
02-Jul-16 05:02 -32.824943 155.024733 73 31372ft 522kts
02-Jul-16 05:03 -32.775911 155.186884 72 31355ft 522kts
02-Jul-16 05:04 -32.726416 155.349966 73 31355ft 522kts
02-Jul-16 05:05 -32.677653 155.512225 72 31354ft 522kts
02-Jul-16 05:06 -32.628079 155.674721 72 31354ft 523kts
02-Jul-16 05:07 -32.578188 155.837202 72 31353ft 524kts
02-Jul-16 05:08 -32.536549 155.972140 72 31352ft 524kts
02-Jul-16 05:09 -32.477826 156.161441 72 31352ft 524kts
02-Jul-16 05:10 -32.435608 156.296818 72 31350ft 525kts
02-Jul-16 05:11 -32.384902 156.458641 71 31350ft 525kts
02-Jul-16 05:12 -32.333824 156.620806 71 31348ft 525kts
02-Jul-16 05:13 -32.282522 156.782841 71 31363ft 525kts
02-Jul-16 05:14 -32.230958 156.944868 71 31361ft 526kts
02-Jul-16 05:15 -32.179230 157.106579 71 31361ft 527kts
02-Jul-16 05:16 -32.126877 157.269404 71 31359ft 528kts
02-Jul-16 05:17 -32.074609 157.431143 70 31358ft 529kts
02-Jul-16 05:18 -32.021884 157.593464 70 31356ft 529kts
02-Jul-16 05:19 -31.968895 157.755783 69 31347ft 531kts
02-Jul-16 05:20 -31.915759 157.917724 69 31343ft 531kts
02-Jul-16 05:21 -31.862200 158.080519 67 31341ft 538kts
02-Jul-16 05:22 -31.807080 158.246502 66 31340ft 544kts
02-Jul-16 05:23 -31.751839 158.412288 66 31339ft 544kts
02-Jul-16 05:24 -31.696363 158.577989 66 31337ft 544kts
02-Jul-16 05:25 -31.640728 158.743629 67 31335ft 544kts
02-Jul-16 05:26 -31.585112 158.908350 66 31333ft 544kts
02-Jul-16 05:27 -31.528987 159.073586 68 31330ft 545kts
02-Jul-16 05:28 -31.485330 159.244045 73 31329ft 545kts
02-Jul-16 05:29 -31.443422 159.414888 72 31327ft 545kts
02-Jul-16 05:30 -31.401135 159.585603 73 31312ft 545kts
02-Jul-16 05:31 -31.358513 159.755207 72 31316ft 544kts
02-Jul-16 05:32 -31.315334 159.925722 72 31305ft 545kts
02-Jul-16 05:33 -31.271877 160.096386 70 31304ft 554kts
02-Jul-16 05:34 -31.226776 160.271683 69 31303ft 564kts
02-Jul-16 05:35 -31.181572 160.446615 69 31300ft 563kts
02-Jul-16 05:36 -31.135987 160.621976 69 31297ft 563kts
02-Jul-16 05:37 -31.090312 160.796614 69 31295ft 563kts
02-Jul-16 05:38 -31.044208 160.971819 69 31291ft 564kts
02-Jul-16 05:39 -30.997803 161.147094 69 31289ft 565kts
02-Jul-16 05:40 -30.951059 161.322583 69 31286ft 567kts
02-Jul-16 05:41 -30.903946 161.498398 68 31283ft 568kts
02-Jul-16 05:42 -30.856662 161.673803 68 31280ft 569kts
02-Jul-16 05:43 -30.808900 161.849900 68 31278ft 570kts
02-Jul-16 05:44 -30.760785 162.026287 67 31271ft 572kts
02-Jul-16 05:45 -30.711917 162.204324 66 31270ft 582kts
02-Jul-16 05:46 -30.662489 162.383328 66 31268ft 581kts
02-Jul-16 05:47 -30.612787 162.562289 66 31266ft 581kts
02-Jul-16 05:48 -30.563115 162.741125 66 31263ft 581kts
02-Jul-16 05:49 -30.512721 162.919647 66 31258ft 582kts
02-Jul-16 05:50 -30.486046 163.106580 81 31255ft 594kts
02-Jul-16 05:51 -30.476226 163.299434 83 31252ft 597kts
02-Jul-16 05:52 -30.467529 163.491931 84 31249ft 600kts
02-Jul-16 05:53 -30.458601 163.685231 83 31246ft 602kts
02-Jul-16 05:54 -30.449044 163.880359 83 31242ft 603kts
02-Jul-16 05:55 -30.439191 164.075167 82 31239ft 606kts
02-Jul-16 05:56 -30.429026 164.270315 82 31236ft 607kts
02-Jul-16 05:57 -30.418581 164.465249 82 31232ft 607kts
02-Jul-16 05:58 -30.407773 164.661457 82 31230ft 607kts
02-Jul-16 05:59 -30.396730 164.856622 82 31227ft 608kts
02-Jul-16 06:00 -30.385278 165.052457 82 31220ft 611kts
02-Jul-16 06:01 -30.373691 165.248540 81 31220ft 609kts
02-Jul-16 06:02 -30.361695 165.444540 81 31219ft 612kts
02-Jul-16 06:03 -30.349295 165.642541 81 31218ft 614kts
02-Jul-16 06:04 -30.336636 165.839903 81 31215ft 616kts
02-Jul-16 06:05 -30.323657 166.037590 81 31214ft 617kts
02-Jul-16 06:06 -30.310258 166.237025 81 31211ft 618kts
02-Jul-16 06:07 -30.296741 166.434693 81 31200ft 617kts
02-Jul-16 06:08 -30.282810 166.633297 80 31183ft 619kts
02-Jul-16 06:09 -30.268545 166.831048 80 31200ft 619kts
02-Jul-16 06:10 -30.253994 167.029456 80 31184ft 618kts
02-Jul-16 06:11 -30.239127 167.228153 80 31204ft 619kts
02-Jul-16 06:12 -30.223975 167.426702 80 31203ft 622kts
02-Jul-16 06:13 -30.208347 167.627233 79 31203ft 624kts
02-Jul-16 06:14 -30.192478 167.827002 79 31203ft 626kts
02-Jul-16 06:15 -30.178948 167.994352 79 31202ft 626kts
02-Jul-16 06:16 -30.162423 168.195216 79 31201ft 626kts
02-Jul-16 06:17 -30.145605 168.395852 79 31201ft 625kts
02-Jul-16 06:18 -30.128518 168.596018 79 31202ft 625kts
02-Jul-16 06:19 -30.111202 168.795236 79 31201ft 624kts
02-Jul-16 06:20 -30.093372 168.994754 78 31206ft 619kts
02-Jul-16 06:21 -30.075605 169.194189 79 31203ft 625kts
02-Jul-16 06:22 -30.057294 169.394326 78 31203ft 626kts
02-Jul-16 06:23 -30.038698 169.594143 78 31202ft 627kts
02-Jul-16 06:24 -30.019905 169.795122 78 31203ft 629kts
02-Jul-16 06:25 -30.000279 169.995987 76 31187ft 634kts
02-Jul-16 06:26 -29.966128 170.193313 69 31198ft 615kts
02-Jul-16 06:27 -29.929398 170.386522 71 31205ft 619kts
02-Jul-16 06:28 -29.894334 170.580611 71 31205ft 619kts
02-Jul-16 06:29 -29.858273 170.775918 71 31206ft 621kts
02-Jul-16 06:30 -29.822042 170.970157 71 31206ft 622kts
02-Jul-16 06:31 -29.785357 171.165139 71 31207ft 622kts
02-Jul-16 06:32 -29.748331 171.360270 70 31207ft 624kts
02-Jul-16 06:33 -29.710937 171.555650 70 31207ft 624kts
02-Jul-16 06:34 -29.673298 171.750722 70 31207ft 626kts
02-Jul-16 06:35 -29.635214 171.946442 70 31208ft 626kts
02-Jul-16 06:36 -29.597148 172.140462 70 31207ft 614kts
02-Jul-16 06:37 -29.559167 172.332495 70 31209ft 616kts
02-Jul-16 06:38 -29.520883 172.524514 70 31208ft 616kts
02-Jul-16 06:39 -29.482413 172.715940 69 31192ft 616kts
02-Jul-16 06:40 -29.443440 172.908349 69 31191ft 618kts
02-Jul-16 06:41 -29.404126 173.100927 69 31190ft 619kts
02-Jul-16 06:42 -29.364590 173.293092 69 31190ft 620kts
02-Jul-16 06:43 -29.324611 173.485914 69 31188ft 621kts
02-Jul-16 06:44 -29.284299 173.678857 69 31188ft 622kts
02-Jul-16 06:45 -29.243808 173.871182 69 31187ft 622kts
02-Jul-16 06:46 -29.202969 174.063636 69 31186ft 617kts
02-Jul-16 06:47 -29.162317 174.253912 69 31185ft 614kts
02-Jul-16 06:48 -29.121406 174.443946 69 31180ft 614kts
02-Jul-16 06:49 -29.080202 174.633951 69 31179ft 615kts
02-Jul-16 06:50 -29.039019 174.823321 68 31177ft 615kts
02-Jul-16 06:51 -28.994987 175.012230 63 31123ft 608kts
02-Jul-16 06:52 -28.929964 175.189205 56 31128ft 603kts
02-Jul-16 06:53 -28.862034 175.364856 58 31124ft 603kts
02-Jul-16 06:54 -28.795854 175.540671 58 31122ft 604kts
02-Jul-16 06:55 -28.728991 175.716349 58 31120ft 602kts
02-Jul-16 06:56 -28.661976 175.891473 58 31117ft 601kts
02-Jul-16 06:57 -28.595096 176.065433 57 31115ft 599kts
02-Jul-16 06:58 -28.528161 176.238735 57 31112ft 597kts
02-Jul-16 06:59 -28.461040 176.411733 57 31110ft 597kts
02-Jul-16 07:00 -28.393649 176.584642 57 31109ft 597kts
02-Jul-16 07:01 -28.326027 176.757365 57 31106ft 597kts
02-Jul-16 07:02 -28.258182 176.929856 57 31127ft 598kts
02-Jul-16 07:03 -28.189796 177.102997 57 31128ft 600kts
02-Jul-16 07:04 -28.121548 177.275002 57 31125ft 598kts
02-Jul-16 07:05 -28.053127 177.446675 57 31123ft 599kts
02-Jul-16 07:06 -27.984281 177.618657 57 31094ft 598kts
02-Jul-16 07:07 -27.915415 177.789957 57 31093ft 597kts
02-Jul-16 07:08 -27.846319 177.961071 57 31090ft 597kts
02-Jul-16 07:09 -27.777376 178.131037 57 31088ft 589kts
02-Jul-16 07:10 -27.708831 178.299376 57 31085ft 590kts
02-Jul-16 07:11 -27.640191 178.467205 57 31083ft 590kts
02-Jul-16 07:12 -27.571111 178.635403 57 31117ft 590kts
02-Jul-16 07:13 -27.501745 178.803590 57 31121ft 590kts
02-Jul-16 07:14 -27.432144 178.971648 57 31118ft 591kts
02-Jul-16 07:15 -27.362296 179.139608 56 31116ft 591kts
02-Jul-16 07:16 -27.292425 179.306926 56 31114ft 592kts
02-Jul-16 07:17 -27.222110 179.474625 56 31111ft 592kts
02-Jul-16 07:18 -27.151611 179.642084 56 31110ft 592kts
02-Jul-16 07:19 -27.081127 179.809320 56 31107ft 591kts
02-Jul-16 07:20 -27.022232 179.947754 56 31131ft 590kts
02-Jul-16 07:21 -26.944507 -179.855556 60 31112ft 588kts
02-Jul-16 07:22 -26.891587 -179.714332 60 31112ft 588kts
02-Jul-16 07:23 -26.817083 -179.517078 60 31112ft 588kts
02-Jul-16 07:24 -26.763714 -179.376823 60 31112ft 588kts
02-Jul-16 07:25 -26.698922 -179.207523 60 31112ft 590kts
02-Jul-16 07:26 -26.634396 -179.039659 59 31112ft 590kts
02-Jul-16 07:27 -26.569277 -178.870964 59 31112ft 590kts
02-Jul-16 07:28 -26.503750 -178.701922 59 31111ft 589kts
02-Jul-16 07:29 -26.438445 -178.534153 59 31112ft 590kts
02-Jul-16 07:30 -26.372729 -178.366021 59 31112ft 590kts
02-Jul-16 07:31 -26.306901 -178.198297 59 31111ft 589kts
02-Jul-16 07:32 -26.240936 -178.030909 59 31112ft 588kts
02-Jul-16 07:33 -26.175027 -177.864336 59 31112ft 584kts
02-Jul-16 07:34 -26.109327 -177.698967 59 31112ft 585kts
02-Jul-16 07:35 -26.043232 -177.533261 59 31112ft 585kts
02-Jul-16 07:36 -25.976934 -177.367809 59 31112ft 581kts
02-Jul-16 07:37 -25.911427 -177.204784 60 31113ft 578kts
02-Jul-16 07:38 -25.845450 -177.041305 59 31113ft 579kts
02-Jul-16 07:39 -25.779370 -176.878216 59 31112ft 580kts
02-Jul-16 07:40 -25.712815 -176.714588 59 31112ft 581kts
02-Jul-16 07:41 -25.645942 -176.550813 59 31113ft 582kts
02-Jul-16 07:42 -25.578799 -176.387008 59 31112ft 583kts
02-Jul-16 07:43 -25.511308 -176.222983 59 31112ft 584kts
02-Jul-16 07:44 -25.443615 -176.059095 59 31112ft 584kts
02-Jul-16 07:45 -25.376347 -175.896901 59 31113ft 570kts
02-Jul-16 07:46 -25.309959 -175.737324 60 31113ft 572kts
02-Jul-16 07:47 -25.243330 -175.577791 60 31112ft 573kts
02-Jul-16 07:48 -25.176056 -175.417309 60 31112ft 572kts
02-Jul-16 07:49 -25.109258 -175.258001 59 31112ft 573kts
02-Jul-16 07:50 -25.041913 -175.098846 59 31104ft 573kts
02-Jul-16 07:51 -24.958664 -174.951313 45 31105ft 560kts
02-Jul-16 07:52 -24.858850 -174.820244 41 31103ft 556kts
02-Jul-16 07:53 -24.757052 -174.691846 42 31104ft 556kts
02-Jul-16 07:54 -24.655784 -174.563257 41 31103ft 554kts
02-Jul-16 07:55 -24.554635 -174.435567 42 31104ft 554kts
02-Jul-16 07:56 -24.453118 -174.307797 42 31103ft 553kts
02-Jul-16 07:57 -24.351733 -174.180538 42 31103ft 552kts
02-Jul-16 07:58 -24.250710 -174.054070 42 31104ft 552kts
02-Jul-16 07:59 -24.149317 -173.927470 42 31097ft 551kts
02-Jul-16 08:00 -24.047916 -173.801191 42 31095ft 551kts
02-Jul-16 08:01 -23.946926 -173.675802 42 31095ft 546kts
02-Jul-16 08:02 -23.846140 -173.550890 42 31095ft 545kts
02-Jul-16 08:03 -23.745881 -173.426987 42 31094ft 545kts
02-Jul-16 08:04 -23.644886 -173.302494 42 31093ft 545kts
02-Jul-16 08:05 -23.544472 -173.179030 42 31093ft 545kts
02-Jul-16 08:06 -23.443543 -173.055241 42 31092ft 545kts
02-Jul-16 08:07 -23.342519 -172.931647 42 31091ft 545kts
02-Jul-16 08:08 -23.241418 -172.808264 42 31089ft 544kts
02-Jul-16 08:09 -23.140364 -172.685240 42 31088ft 544kts
02-Jul-16 08:10 -23.039595 -172.562865 42 31087ft 543kts
02-Jul-16 08:11 -22.938857 -172.440824 42 31085ft 543kts
02-Jul-16 08:12 -22.837938 -172.318859 42 31082ft 541kts
02-Jul-16 08:13 -22.736882 -172.197020 42 31081ft 540kts
02-Jul-16 08:14 -22.636568 -172.076364 42 31079ft 539kts
02-Jul-16 08:15 -22.536008 -171.955700 42 31075ft 538kts
02-Jul-16 08:16 -22.435630 -171.835530 42 31072ft 537kts
02-Jul-16 08:17 -22.335161 -171.715535 42 31068ft 537kts
02-Jul-16 08:18 -22.234585 -171.595689 42 31022ft 537kts
02-Jul-16 08:19 -22.134301 -171.476468 42 31011ft 537kts
02-Jul-16 08:20 -22.033566 -171.356985 42 31007ft 537kts
02-Jul-16 08:21 -21.932950 -171.237940 43 31003ft 533kts
02-Jul-16 08:22 -21.849747 -171.139656 43 31001ft 534kts
02-Jul-16 08:23 -21.732467 -171.001457 43 30996ft 533kts
02-Jul-16 08:24 -21.632032 -170.883396 43 30992ft 534kts
02-Jul-16 08:25 -21.548500 -170.785406 43 30980ft 534kts
02-Jul-16 08:26 -21.431117 -170.648007 43 30978ft 534kts
02-Jul-16 08:27 -21.347101 -170.549881 43 30977ft 534kts
02-Jul-16 08:28 -21.246377 -170.432477 43 31005ft 533kts
02-Jul-16 08:29 -21.146005 -170.315736 43 31002ft 533kts
02-Jul-16 08:30 -21.045449 -170.199032 43 30998ft 531kts
02-Jul-16 08:31 -20.945313 -170.083063 43 30995ft 530kts
02-Jul-16 08:32 -20.844976 -169.967117 43 30991ft 528kts
02-Jul-16 08:33 -20.745245 -169.852093 43 30982ft 526kts
02-Jul-16 08:34 -20.645490 -169.737291 43 30979ft 526kts
02-Jul-16 08:35 -20.546075 -169.623114 43 30977ft 525kts
02-Jul-16 08:36 -20.446255 -169.508707 43 30976ft 525kts
02-Jul-16 08:37 -20.346043 -169.394084 43 30975ft 525kts
02-Jul-16 08:38 -20.246771 -169.280761 43 30974ft 525kts
02-Jul-16 08:39 -20.146433 -169.166259 43 30973ft 526kts
02-Jul-16 08:40 -20.046472 -169.052745 43 30972ft 527kts
02-Jul-16 08:41 -19.944261 -168.940498 40 30972ft 523kts
02-Jul-16 08:42 -19.839813 -168.833330 41 30972ft 523kts
02-Jul-16 08:43 -19.735519 -168.725294 41 30973ft 523kts
02-Jul-16 08:44 -19.631742 -168.617411 41 30973ft 523kts
02-Jul-16 08:45 -19.527032 -168.509017 41 30973ft 523kts
02-Jul-16 08:46 -19.422995 -168.401553 41 30974ft 522kts
02-Jul-16 08:47 -19.318616 -168.293946 41 30975ft 522kts
02-Jul-16 08:48 -19.214275 -168.186580 41 30976ft 522kts
02-Jul-16 08:49 -19.110026 -168.079506 41 30976ft 521kts
02-Jul-16 08:50 -19.006246 -167.973135 41 30968ft 519kts
02-Jul-16 08:51 -18.902645 -167.867101 41 30966ft 517kts
02-Jul-16 08:52 -18.799046 -167.761276 41 30966ft 517kts
02-Jul-16 08:53 -18.695706 -167.655910 41 30968ft 517kts
02-Jul-16 08:54 -18.591673 -167.550027 41 30968ft 517kts
02-Jul-16 08:55 -18.488311 -167.445015 41 30968ft 516kts
02-Jul-16 08:56 -18.384637 -167.339872 41 30969ft 516kts
02-Jul-16 08:57 -18.281249 -167.235202 41 30968ft 517kts
02-Jul-16 08:58 -18.176971 -167.129816 41 30968ft 517kts
02-Jul-16 08:59 -18.073067 -167.024992 41 30969ft 517kts
02-Jul-16 09:00 -17.969379 -166.920585 42 30969ft 516kts
02-Jul-16 09:01 -17.865665 -166.816293 42 30970ft 515kts
02-Jul-16 09:02 -17.761862 -166.712103 42 30970ft 515kts
02-Jul-16 09:03 -17.658013 -166.608048 42 30971ft 515kts
02-Jul-16 09:04 -17.554421 -166.504422 42 30971ft 515kts
02-Jul-16 09:05 -17.450059 -166.400201 42 30972ft 515kts
02-Jul-16 09:06 -17.346357 -166.296811 42 30972ft 515kts
02-Jul-16 09:07 -17.242280 -166.193218 42 30973ft 515kts
02-Jul-16 09:08 -17.138213 -166.089803 42 30974ft 515kts
02-Jul-16 09:09 -17.034504 -165.986914 42 30974ft 514kts
02-Jul-16 09:10 -16.930520 -165.883916 42 30974ft 514kts
02-Jul-16 09:11 -16.826497 -165.781037 42 30974ft 514kts
02-Jul-16 09:12 -16.722366 -165.678221 42 30975ft 514kts
02-Jul-16 09:13 -16.618229 -165.575561 42 30976ft 514kts
02-Jul-16 09:14 -16.514015 -165.472986 42 30977ft 514kts
02-Jul-16 09:15 -16.410033 -165.370798 42 30977ft 514kts
02-Jul-16 09:16 -16.305722 -165.268446 42 30977ft 514kts
02-Jul-16 09:17 -16.201350 -165.166191 42 30978ft 514kts
02-Jul-16 09:18 -16.096934 -165.064048 42 30978ft 514kts
02-Jul-16 09:19 -15.992444 -164.961988 42 30979ft 514kts
02-Jul-16 09:20 -15.888520 -164.860635 43 30979ft 512kts
02-Jul-16 09:21 -15.784344 -164.759181 43 30980ft 512kts
02-Jul-16 09:22 -15.680432 -164.658136 43 30981ft 512kts
02-Jul-16 09:23 -15.576140 -164.556870 43 30981ft 512kts
02-Jul-16 09:24 -15.471434 -164.455349 43 30982ft 512kts
02-Jul-16 09:25 -15.367399 -164.354622 43 30982ft 512kts
02-Jul-16 09:26 -15.263005 -164.253690 43 30982ft 512kts
02-Jul-16 09:27 -15.176140 -164.169684 43 30983ft 511kts
02-Jul-16 09:28 -15.054930 -164.052896 43 30983ft 511kts
02-Jul-16 09:29 -14.962192 -163.976418 33 30979ft 511kts
02-Jul-16 09:30 -14.840082 -163.901174 30 30984ft 510kts
02-Jul-16 09:31 -14.717511 -163.826790 31 30984ft 510kts
02-Jul-16 09:32 -14.595610 -163.752081 31 30983ft 510kts
02-Jul-16 09:33 -14.473227 -163.677211 31 30983ft 510kts
02-Jul-16 09:34 -14.350802 -163.602430 31 30984ft 510kts
02-Jul-16 09:35 -14.228357 -163.527734 31 30984ft 510kts
02-Jul-16 09:36 -14.106308 -163.453376 31 30984ft 510kts
02-Jul-16 09:37 -13.983824 -163.378848 31 30984ft 510kts
02-Jul-16 09:38 -13.862023 -163.304827 31 30991ft 505kts
02-Jul-16 09:39 -13.740998 -163.231364 31 30991ft 506kts
02-Jul-16 09:40 -13.619527 -163.157722 31 30991ft 505kts
02-Jul-16 09:41 -13.498113 -163.084204 31 30991ft 505kts
02-Jul-16 09:42 -13.377092 -163.011011 31 30991ft 505kts
02-Jul-16 09:43 -13.255330 -162.937457 31 30990ft 505kts
02-Jul-16 09:44 -13.133936 -162.864212 31 30989ft 505kts
02-Jul-16 09:45 -13.013025 -162.791341 31 30989ft 504kts
02-Jul-16 09:46 -12.891757 -162.718341 31 30989ft 504kts
02-Jul-16 09:47 -12.770565 -162.645467 31 30989ft 504kts
02-Jul-16 09:48 -12.649412 -162.572698 31 30988ft 503kts
02-Jul-16 09:49 -12.528795 -162.500332 31 30988ft 503kts
02-Jul-16 09:50 -12.407740 -162.427785 31 30987ft 503kts
02-Jul-16 09:51 -12.286292 -162.355079 31 30987ft 503kts
02-Jul-16 09:52 -12.165659 -162.282940 31 30986ft 503kts
02-Jul-16 09:53 -12.044649 -162.210651 31 30996ft 502kts
02-Jul-16 09:54 -11.924049 -162.138684 31 30996ft 502kts
02-Jul-16 09:55 -11.803039 -162.066547 31 30996ft 502kts
02-Jul-16 09:56 -11.682021 -161.994480 31 30995ft 502kts
02-Jul-16 09:57 -11.561355 -161.922702 32 30994ft 500kts
02-Jul-16 09:58 -11.440768 -161.851031 32 30994ft 500kts
02-Jul-16 09:59 -11.320678 -161.779732 33 30993ft 500kts
02-Jul-16 10:00 -11.199778 -161.708022 33 30992ft 500kts
02-Jul-16 10:01 -11.079572 -161.636744 32 30997ft 504kts
02-Jul-16 10:02 -10.958747 -161.565248 32 30995ft 497kts
02-Jul-16 10:03 -10.838555 -161.494100 32 31003ft 498kts
02-Jul-16 10:04 -10.719007 -161.423541 33 31009ft 500kts
02-Jul-16 10:05 -10.598637 -161.352490 33 31010ft 499kts
02-Jul-16 10:06 -10.478732 -161.281765 33 31007ft 499kts
02-Jul-16 10:07 -10.358420 -161.210868 33 31006ft 499kts
02-Jul-16 10:08 -10.239264 -161.140712 33 30984ft 496kts
02-Jul-16 10:09 -10.119015 -161.069943 33 31004ft 498kts
02-Jul-16 10:10 -9.999229 -160.999558 33 31004ft 498kts
02-Jul-16 10:11 -9.880343 -160.927339 34 31003ft 497kts
02-Jul-16 10:12 -9.761959 -160.855318 34 31002ft 497kts
02-Jul-16 10:13 -9.642779 -160.782830 34 31001ft 497kts
02-Jul-16 10:14 -9.524395 -160.710894 34 31000ft 497kts
02-Jul-16 10:15 -9.405542 -160.638769 34 30999ft 497kts
02-Jul-16 10:16 -9.286709 -160.566719 34 30998ft 497kts
02-Jul-16 10:17 -9.167748 -160.494651 34 30997ft 497kts
02-Jul-16 10:18 -9.048806 -160.422651 34 30996ft 497kts
02-Jul-16 10:19 -8.929743 -160.350633 33 30995ft 497kts
02-Jul-16 10:20 -8.811053 -160.278896 33 30994ft 498kts
02-Jul-16 10:21 -8.691848 -160.206903 33 30993ft 498kts
02-Jul-16 10:22 -8.572672 -160.134981 33 30992ft 498kts
02-Jul-16 10:23 -8.453416 -160.063063 33 30991ft 498kts
02-Jul-16 10:24 -8.334490 -159.991398 33 30989ft 498kts
02-Jul-16 10:25 -8.215063 -159.919483 33 30988ft 499kts
02-Jul-16 10:26 -8.096058 -159.847872 33 30987ft 499kts
02-Jul-16 10:27 -7.976254 -159.775808 33 30985ft 498kts
02-Jul-16 10:28 -7.857102 -159.704219 32 30992ft 497kts
02-Jul-16 10:29 -7.758240 -159.644857 32 30991ft 497kts
02-Jul-16 10:30 -7.619377 -159.561520 32 30990ft 497kts
02-Jul-16 10:31 -7.520090 -159.501972 32 30988ft 497kts
02-Jul-16 10:32 -7.401245 -159.430735 32 30988ft 497kts
02-Jul-16 10:33 -7.282155 -159.359399 32 30986ft 497kts
02-Jul-16 10:34 -7.163068 -159.288107 32 30987ft 497kts
02-Jul-16 10:35 -7.043898 -159.216811 32 30986ft 497kts
02-Jul-16 10:36 -6.925135 -159.145801 32 30984ft 497kts
02-Jul-16 10:37 -6.805962 -159.074587 31 30982ft 497kts
02-Jul-16 10:38 -6.686743 -159.003388 31 30981ft 497kts
02-Jul-16 10:39 -6.567500 -158.932213 31 30979ft 497kts
02-Jul-16 10:40 -6.448601 -158.861287 31 30978ft 497kts
02-Jul-16 10:41 -6.328896 -158.789917 31 30977ft 498kts
02-Jul-16 10:42 -6.209922 -158.719022 31 30975ft 498kts
02-Jul-16 10:43 -6.090079 -158.647647 31 30974ft 498kts
02-Jul-16 10:44 -5.971034 -158.576779 31 30972ft 498kts
02-Jul-16 10:45 -5.851507 -158.505670 31 30971ft 498kts
02-Jul-16 10:46 -5.731988 -158.434597 31 30969ft 498kts
02-Jul-16 10:47 -5.612467 -158.363556 31 30967ft 498kts
02-Jul-16 10:48 -5.492983 -158.292571 31 30966ft 498kts
02-Jul-16 10:49 -5.373914 -158.221864 31 30964ft 498kts
02-Jul-16 10:50 -5.254435 -158.150926 31 30963ft 498kts
02-Jul-16 10:51 -5.134986 -158.080054 31 30962ft 497kts
02-Jul-16 10:52 -5.015620 -158.009171 32 30958ft 497kts
02-Jul-16 10:53 -4.905432 -157.925868 39 30957ft 497kts
02-Jul-16 10:54 -4.797900 -157.837697 39 30956ft 497kts
02-Jul-16 10:55 -4.690370 -157.750951 38 30954ft 497kts
02-Jul-16 10:56 -4.582395 -157.664047 38 30953ft 497kts
02-Jul-16 10:57 -4.474760 -157.577507 38 30952ft 497kts
02-Jul-16 10:58 -4.366356 -157.490390 38 30951ft 497kts
02-Jul-16 10:59 -4.258352 -157.403630 38 30946ft 497kts
02-Jul-16 11:00 -4.150656 -157.317148 38 30945ft 496kts
02-Jul-16 11:01 -4.042624 -157.230428 38 30944ft 497kts
02-Jul-16 11:02 -3.934457 -157.143628 38 30943ft 496kts
02-Jul-16 11:03 -3.826603 -157.057113 38 30966ft 498kts
02-Jul-16 11:04 -3.717942 -156.969980 38 30966ft 498kts
02-Jul-16 11:05 -3.609981 -156.883434 38 30965ft 498kts
02-Jul-16 11:06 -3.501642 -156.796613 38 30963ft 498kts
02-Jul-16 11:07 -3.393317 -156.709828 38 30963ft 498kts
02-Jul-16 11:08 -3.284966 -156.623049 38 30962ft 498kts
02-Jul-16 11:09 -3.176605 -156.536287 37 30961ft 497kts
02-Jul-16 11:10 -3.068685 -156.449902 37 30960ft 497kts
02-Jul-16 11:11 -2.960316 -156.363182 37 30959ft 498kts
02-Jul-16 11:12 -2.851953 -156.276487 37 30959ft 498kts
02-Jul-16 11:13 -2.743528 -156.189765 37 30957ft 498kts
02-Jul-16 11:14 -2.635141 -156.103094 37 30957ft 498kts
02-Jul-16 11:15 -2.526673 -156.016378 37 30960ft 498kts
02-Jul-16 11:16 -2.418156 -155.929641 37 30959ft 498kts
02-Jul-16 11:17 -2.309974 -155.843192 37 30959ft 498kts
02-Jul-16 11:18 -2.201455 -155.756490 37 30958ft 498kts
02-Jul-16 11:19 -2.093324 -155.670114 37 30957ft 498kts
02-Jul-16 11:20 -1.984772 -155.583426 37 30957ft 498kts
02-Jul-16 11:21 -1.876182 -155.496711 38 30956ft 498kts
02-Jul-16 11:22 -1.767605 -155.410021 38 30956ft 498kts
02-Jul-16 11:23 -1.659018 -155.323338 38 30955ft 498kts
02-Jul-16 11:24 -1.550424 -155.236664 38 30955ft 498kts
02-Jul-16 11:25 -1.441832 -155.150003 38 30954ft 498kts
02-Jul-16 11:26 -1.333582 -155.063625 38 30954ft 498kts
02-Jul-16 11:27 -1.225323 -154.977250 38 30946ft 498kts
02-Jul-16 11:28 -1.116368 -154.890329 38 30946ft 498kts
02-Jul-16 11:29 -1.007778 -154.803707 38 30946ft 498kts
02-Jul-16 11:30 -0.899534 -154.717368 38 30946ft 498kts
02-Jul-16 11:31 -0.791093 -154.630879 38 30945ft 497kts
02-Jul-16 11:32 -0.682694 -154.544428 38 30946ft 497kts
02-Jul-16 11:33 -0.592332 -154.472366 38 30945ft 497kts
02-Jul-16 11:34 -0.483916 -154.385910 38 30945ft 497kts
02-Jul-16 11:35 -0.357478 -154.285085 38 30945ft 498kts
02-Jul-16 11:36 -0.267416 -154.213267 38 30945ft 498kts
02-Jul-16 11:37 -0.158942 -154.126765 38 30945ft 498kts
02-Jul-16 11:38 -0.050631 -154.040388 38 30945ft 497kts
02-Jul-16 11:39 0.057560 -153.954179 39 30945ft 494kts
02-Jul-16 11:40 0.165198 -153.868370 39 30945ft 494kts
02-Jul-16 11:41 0.272443 -153.782861 39 30945ft 494kts
02-Jul-16 11:42 0.380073 -153.697043 39 30945ft 494kts
02-Jul-16 11:43 0.487694 -153.611228 39 30945ft 494kts
02-Jul-16 11:44 0.594929 -153.525717 39 30945ft 494kts
02-Jul-16 11:45 0.702882 -153.439629 39 30945ft 494kts
02-Jul-16 11:46 0.810485 -153.353815 39 30946ft 494kts
02-Jul-16 11:47 0.917290 -153.268632 39 30946ft 493kts
02-Jul-16 11:48 1.025096 -153.182643 39 30946ft 493kts
02-Jul-16 11:49 1.132904 -153.096645 39 30946ft 493kts
02-Jul-16 11:50 1.239960 -153.011238 39 30946ft 493kts
02-Jul-16 11:51 1.347426 -152.925497 39 30947ft 492kts
02-Jul-16 11:52 1.454730 -152.839873 39 30947ft 492kts
02-Jul-16 11:53 1.561674 -152.754526 39 30947ft 492kts
02-Jul-16 11:54 1.668893 -152.668948 39 30947ft 492kts
02-Jul-16 11:55 1.775973 -152.583469 39 30948ft 491kts
02-Jul-16 11:56 1.883025 -152.497999 39 30948ft 491kts
02-Jul-16 11:57 1.989924 -152.412638 39 30950ft 491kts
02-Jul-16 11:58 2.096438 -152.327569 39 30959ft 490kts
02-Jul-16 11:59 2.203598 -152.241969 39 30960ft 490kts
02-Jul-16 12:00 2.310363 -152.156668 39 30960ft 490kts
02-Jul-16 12:01 2.416785 -152.071625 39 30962ft 490kts
02-Jul-16 12:02 2.523577 -151.986267 39 30963ft 490kts
02-Jul-16 12:03 2.629820 -151.901330 39 30939ft 487kts
02-Jul-16 12:04 2.735848 -151.816548 39 30940ft 487kts
02-Jul-16 12:05 2.841595 -151.731969 39 30941ft 487kts
02-Jul-16 12:06 2.948028 -151.646821 39 30942ft 487kts
02-Jul-16 12:07 3.053795 -151.562185 39 30944ft 487kts
02-Jul-16 12:08 3.159870 -151.477280 39 30945ft 487kts
02-Jul-16 12:09 3.265930 -151.392364 39 30947ft 487kts
02-Jul-16 12:10 3.371831 -151.307551 39 30947ft 486kts
02-Jul-16 12:11 3.477658 -151.222774 39 30949ft 486kts
02-Jul-16 12:12 3.583125 -151.138259 39 30950ft 486kts
02-Jul-16 12:13 3.688822 -151.053535 39 30952ft 486kts
02-Jul-16 12:14 3.794477 -150.968817 39 30953ft 484kts
02-Jul-16 12:15 3.899927 -150.884237 39 30955ft 484kts
02-Jul-16 12:16 4.005294 -150.799694 39 30956ft 484kts
02-Jul-16 12:17 4.110418 -150.715317 39 30958ft 483kts
02-Jul-16 12:18 4.215475 -150.630966 39 30960ft 483kts
02-Jul-16 12:19 4.320468 -150.546635 39 30961ft 483kts
02-Jul-16 12:20 4.425167 -150.462509 39 30963ft 483kts
02-Jul-16 12:21 4.529819 -150.378387 39 30964ft 483kts
02-Jul-16 12:22 4.635149 -150.293688 39 30966ft 483kts
02-Jul-16 12:23 4.739779 -150.209516 39 30967ft 482kts
02-Jul-16 12:24 4.844688 -150.125112 39 30970ft 483kts
02-Jul-16 12:25 4.949737 -150.040501 39 30971ft 483kts
02-Jul-16 12:26 5.059620 -149.962591 31 30983ft 484kts
02-Jul-16 12:27 5.176404 -149.895101 30 30982ft 481kts
02-Jul-16 12:28 5.292566 -149.826446 30 30976ft 484kts
02-Jul-16 12:29 5.408802 -149.757524 30 30978ft 484kts
02-Jul-16 12:30 5.524547 -149.688800 30 30980ft 484kts
02-Jul-16 12:31 5.640694 -149.619794 30 30981ft 484kts
02-Jul-16 12:32 5.737164 -149.562454 30 30981ft 484kts
02-Jul-16 12:33 5.872938 -149.481712 30 30983ft 484kts
02-Jul-16 12:34 5.969521 -149.424174 31 30993ft 482kts
02-Jul-16 12:35 6.104312 -149.344016 31 30987ft 483kts
02-Jul-16 12:36 6.200956 -149.286454 31 30989ft 483kts
02-Jul-16 12:37 6.316442 -149.217641 31 30991ft 483kts
02-Jul-16 12:38 6.432697 -149.148333 31 30993ft 483kts
02-Jul-16 12:39 6.548571 -149.079217 31 30995ft 483kts
02-Jul-16 12:40 6.664052 -149.010297 31 30997ft 483kts
02-Jul-16 12:41 6.779908 -148.941114 31 30999ft 483kts
02-Jul-16 12:42 6.895752 -148.871900 31 31001ft 483kts
02-Jul-16 12:43 7.011200 -148.802882 32 31003ft 483kts
02-Jul-16 12:44 7.127019 -148.733603 32 31005ft 482kts
02-Jul-16 12:45 7.243014 -148.664177 32 31007ft 482kts
02-Jul-16 12:46 7.358407 -148.595077 32 31000ft 484kts
02-Jul-16 12:47 7.473091 -148.526357 31 31003ft 486kts
02-Jul-16 12:48 7.590133 -148.456176 32 31019ft 481kts
02-Jul-16 12:49 7.704779 -148.387348 32 31012ft 482kts
02-Jul-16 12:50 7.820172 -148.318090 32 31017ft 481kts
02-Jul-16 12:51 7.935245 -148.248849 32 31025ft 479kts
02-Jul-16 12:52 8.050701 -148.179534 32 31022ft 482kts
02-Jul-16 12:53 8.165882 -148.110256 32 31024ft 481kts
02-Jul-16 12:54 8.280924 -148.040963 32 31018ft 486kts
02-Jul-16 12:55 8.396928 -147.971159 32 31037ft 475kts
02-Jul-16 12:56 8.511492 -147.902039 33 31025ft 479kts
02-Jul-16 12:57 8.626418 -147.832838 33 31027ft 475kts
02-Jul-16 12:58 8.740074 -147.764175 33 31010ft 482kts
02-Jul-16 12:59 8.854652 -147.694926 33 31019ft 475kts
02-Jul-16 13:00 8.968640 -147.626009 33 31032ft 480kts
02-Jul-16 13:01 9.083414 -147.556533 33 31023ft 481kts
02-Jul-16 13:02 9.197919 -147.487218 33 31031ft 479kts
02-Jul-16 13:03 9.312257 -147.417942 33 31037ft 479kts
02-Jul-16 13:04 9.427348 -147.348134 33 31043ft 479kts
02-Jul-16 13:05 9.540947 -147.279193 33 31037ft 476kts
02-Jul-16 13:06 9.655489 -147.209604 33 31035ft 473kts
02-Jul-16 13:07 9.768968 -147.140704 33 31065ft 476kts
02-Jul-16 13:08 9.883621 -147.070906 33 31046ft 478kts
02-Jul-16 13:09 9.997933 -147.001281 33 31047ft 478kts
02-Jul-16 13:10 10.112950 -146.933539 31 31053ft 478kts
02-Jul-16 13:11 10.229533 -146.864948 31 31051ft 479kts
02-Jul-16 13:12 10.344903 -146.797032 31 31038ft 485kts
02-Jul-16 13:13 10.460561 -146.729004 31 31048ft 469kts
02-Jul-16 13:14 10.575497 -146.661280 31 31055ft 479kts
02-Jul-16 13:15 10.690811 -146.593221 31 31057ft 478kts
02-Jul-16 13:16 10.807883 -146.524136 31 31059ft 485kts
02-Jul-16 13:17 10.921757 -146.456660 31 31063ft 478kts
02-Jul-16 13:18 11.037628 -146.388137 31 31061ft 479kts
02-Jul-16 13:19 11.153368 -146.319628 31 31085ft 478kts
02-Jul-16 13:20 11.268627 -146.251280 31 31064ft 479kts
02-Jul-16 13:21 11.384000 -146.182734 31 31058ft 480kts
02-Jul-16 13:22 11.499708 -146.114096 31 31069ft 478kts
02-Jul-16 13:23 11.614128 -146.046002 31 31062ft 470kts
02-Jul-16 13:24 11.728760 -145.977895 31 31061ft 479kts
02-Jul-16 13:25 11.844110 -145.909113 31 31070ft 479kts
02-Jul-16 13:26 11.959949 -145.839959 31 31069ft 482kts
02-Jul-16 13:27 12.074424 -145.771708 30 31073ft 476kts
02-Jul-16 13:28 12.189583 -145.702900 30 31074ft 479kts
02-Jul-16 13:29 12.286066 -145.645197 30 31075ft 479kts
02-Jul-16 13:30 12.420000 -145.565013 30 31076ft 478kts
02-Jul-16 13:31 12.515984 -145.507490 30 31077ft 478kts
02-Jul-16 13:32 12.631123 -145.438420 30 31078ft 478kts
02-Jul-16 13:33 12.746167 -145.369335 30 31079ft 478kts
02-Jul-16 13:34 12.860740 -145.300460 30 31080ft 478kts
02-Jul-16 13:35 12.976112 -145.231030 30 31081ft 478kts
02-Jul-16 13:36 13.091023 -145.161802 30 31082ft 478kts
02-Jul-16 13:37 13.205897 -145.092521 30 31083ft 478kts
02-Jul-16 13:38 13.320331 -145.023429 30 31083ft 478kts
02-Jul-16 13:39 13.435118 -144.954046 30 31085ft 477kts
02-Jul-16 13:40 13.550219 -144.884396 30 31085ft 477kts
02-Jul-16 13:41 13.664895 -144.814924 30 31086ft 477kts
02-Jul-16 13:42 13.779145 -144.745630 30 31087ft 477kts
02-Jul-16 13:43 13.893700 -144.676072 30 31088ft 477kts
02-Jul-16 13:44 14.008224 -144.606452 30 31088ft 477kts
02-Jul-16 13:45 14.123169 -144.536493 30 31089ft 477kts
02-Jul-16 13:46 14.237377 -144.466902 30 31090ft 477kts
02-Jul-16 13:47 14.351901 -144.397033 30 31091ft 477kts
02-Jul-16 13:48 14.466795 -144.326853 30 31091ft 477kts
02-Jul-16 13:49 14.580895 -144.257074 30 31092ft 477kts
02-Jul-16 13:50 14.695416 -144.186950 30 31092ft 478kts
02-Jul-16 13:51 14.810068 -144.116733 30 31093ft 478kts
02-Jul-16 13:52 14.924324 -144.046535 30 31094ft 479kts
02-Jul-16 13:53 15.034337 -143.967873 40 31093ft 480kts
02-Jul-16 13:54 15.132029 -143.873649 42 31095ft 480kts
02-Jul-16 13:55 15.229920 -143.778283 42 31095ft 481kts
02-Jul-16 13:56 15.327961 -143.683622 41 31095ft 481kts
02-Jul-16 13:57 15.425925 -143.588887 41 31095ft 481kts
02-Jul-16 13:58 15.523499 -143.494358 42 31089ft 481kts
02-Jul-16 13:59 15.621686 -143.399099 42 31089ft 480kts
02-Jul-16 14:00 15.719184 -143.304377 42 31090ft 480kts
02-Jul-16 14:01 15.817227 -143.208994 42 31090ft 480kts
02-Jul-16 14:02 15.914606 -143.114125 42 31090ft 480kts
02-Jul-16 14:03 16.012519 -143.018602 41 31084ft 480kts
02-Jul-16 14:04 16.110044 -142.923322 41 31084ft 482kts
02-Jul-16 14:05 16.207614 -142.827866 41 31084ft 482kts
02-Jul-16 14:06 16.305715 -142.731752 41 31084ft 482kts
02-Jul-16 14:07 16.403507 -142.635802 41 31085ft 482kts
02-Jul-16 14:08 16.501192 -142.539817 41 31084ft 482kts
02-Jul-16 14:09 16.598540 -142.444025 41 31085ft 482kts
02-Jul-16 14:10 16.696512 -142.347477 41 31085ft 482kts
02-Jul-16 14:11 16.794164 -142.251101 41 31084ft 482kts
02-Jul-16 14:12 16.891492 -142.154903 41 31084ft 482kts
02-Jul-16 14:13 16.989180 -142.058204 41 31084ft 483kts
02-Jul-16 14:14 17.086956 -141.961266 41 31084ft 484kts
02-Jul-16 14:15 17.185074 -141.863850 41 31084ft 485kts
02-Jul-16 14:16 17.283038 -141.766435 41 31084ft 485kts
02-Jul-16 14:17 17.380939 -141.668931 41 31085ft 484kts
02-Jul-16 14:18 17.478421 -141.571693 41 31084ft 484kts
02-Jul-16 14:19 17.576524 -141.473683 41 31085ft 485kts
02-Jul-16 14:20 17.674358 -141.375788 41 31084ft 485kts
02-Jul-16 14:21 17.771738 -141.278193 41 31085ft 485kts
02-Jul-16 14:22 17.853162 -141.196470 41 31084ft 485kts
02-Jul-16 14:23 17.966999 -141.082032 41 31085ft 485kts
02-Jul-16 14:24 18.048415 -141.000047 41 31085ft 487kts
02-Jul-16 14:25 18.146537 -140.901108 41 31085ft 488kts
02-Jul-16 14:26 18.244585 -140.802074 41 31084ft 487kts
02-Jul-16 14:27 18.342212 -140.703303 41 31085ft 487kts
02-Jul-16 14:28 18.440414 -140.603786 41 31084ft 487kts
02-Jul-16 14:29 18.538245 -140.504479 41 31085ft 487kts
02-Jul-16 14:30 18.636071 -140.405010 41 31085ft 488kts
02-Jul-16 14:31 18.733532 -140.305745 41 31085ft 488kts
02-Jul-16 14:32 18.831695 -140.205593 41 31085ft 488kts
02-Jul-16 14:33 18.929231 -140.105916 41 31084ft 489kts
02-Jul-16 14:34 19.027481 -140.005333 41 31085ft 489kts
02-Jul-16 14:35 19.125391 -139.904922 41 31083ft 492kts
02-Jul-16 14:36 19.223830 -139.803795 41 31082ft 492kts
02-Jul-16 14:37 19.322156 -139.702605 41 31082ft 492kts
02-Jul-16 14:38 19.420438 -139.601279 41 31082ft 493kts
02-Jul-16 14:39 19.520130 -139.498313 41 32091ft 502kts
02-Jul-16 14:40 19.619844 -139.395137 40 33764ft 498kts
02-Jul-16 14:41 19.718873 -139.292482 40 35098ft 496kts
02-Jul-16 14:42 19.817802 -139.189922 40 36229ft 496kts
02-Jul-16 14:43 19.916813 -139.086791 40 37069ft 496kts
02-Jul-16 14:44 20.014395 -138.983693 43 37078ft 497kts
02-Jul-16 14:45 20.102534 -138.869298 47 37077ft 499kts
02-Jul-16 14:46 20.190018 -138.754809 46 37075ft 499kts
02-Jul-16 14:47 20.278744 -138.640154 46 37078ft 499kts
02-Jul-16 14:48 20.366803 -138.526142 46 37079ft 499kts
02-Jul-16 14:49 20.454996 -138.411628 46 37078ft 499kts
02-Jul-16 14:50 20.543135 -138.296940 46 37115ft 498kts
02-Jul-16 14:51 20.631199 -138.182119 46 37228ft 499kts
02-Jul-16 14:52 20.719222 -138.067117 46 37135ft 498kts
02-Jul-16 14:53 20.806911 -137.952298 46 37134ft 500kts
02-Jul-16 14:54 20.895010 -137.836747 46 37133ft 500kts
02-Jul-16 14:55 20.982759 -137.721402 46 37122ft 500kts
02-Jul-16 14:56 21.070983 -137.605191 46 37121ft 500kts
02-Jul-16 14:57 21.158855 -137.489202 46 37121ft 500kts
02-Jul-16 14:58 21.246629 -137.373100 46 37110ft 500kts
02-Jul-16 14:59 21.334154 -137.257084 46 37110ft 501kts
02-Jul-16 15:00 21.421865 -137.140577 46 37109ft 500kts
02-Jul-16 15:01 21.509387 -137.024075 46 37108ft 500kts
02-Jul-16 15:02 21.596589 -136.907751 46 37107ft 500kts
02-Jul-16 15:03 21.683984 -136.790920 46 37105ft 500kts
02-Jul-16 15:04 21.771283 -136.673966 46 37105ft 500kts
02-Jul-16 15:05 21.858810 -136.556453 46 37104ft 500kts
02-Jul-16 15:06 21.945928 -136.439234 46 37104ft 500kts
02-Jul-16 15:07 22.032618 -136.322337 46 37103ft 500kts
02-Jul-16 15:08 22.119578 -136.204819 46 37102ft 500kts
02-Jul-16 15:09 22.206472 -136.087132 46 37101ft 500kts
02-Jul-16 15:10 22.293019 -135.969666 47 37104ft 501kts
02-Jul-16 15:11 22.380529 -135.850604 47 37105ft 504kts
02-Jul-16 15:12 22.467460 -135.732075 47 37104ft 504kts
02-Jul-16 15:13 22.554579 -135.613020 47 37104ft 503kts
02-Jul-16 15:14 22.641308 -135.494229 47 37097ft 503kts
02-Jul-16 15:15 22.728249 -135.374875 47 37096ft 504kts
02-Jul-16 15:16 22.815163 -135.255431 47 37096ft 503kts
02-Jul-16 15:17 22.901917 -135.135811 47 37096ft 503kts
02-Jul-16 15:18 22.988510 -135.015952 47 37095ft 504kts
02-Jul-16 15:19 23.069554 -134.891490 52 37094ft 506kts
02-Jul-16 15:20 23.135313 -134.784984 52 37100ft 506kts
02-Jul-16 15:21 23.227571 -134.637629 51 37102ft 506kts
02-Jul-16 15:22 23.293906 -134.531894 52 37102ft 506kts
02-Jul-16 15:23 23.386176 -134.384108 52 37104ft 507kts
02-Jul-16 15:24 23.452239 -134.277993 52 37104ft 507kts
02-Jul-16 15:25 23.531385 -134.150567 52 37104ft 507kts
02-Jul-16 15:26 23.610515 -134.022844 52 37103ft 507kts
02-Jul-16 15:27 23.689485 -133.895057 52 37102ft 508kts
02-Jul-16 15:28 23.768213 -133.767336 52 37102ft 507kts
02-Jul-16 15:29 23.847340 -133.638642 52 37101ft 508kts
02-Jul-16 15:30 23.926150 -133.510132 53 37100ft 508kts
02-Jul-16 15:31 24.004904 -133.381384 53 37100ft 508kts
02-Jul-16 15:32 24.083451 -133.252652 54 37099ft 511kts
02-Jul-16 15:33 24.162271 -133.123112 54 37098ft 509kts
02-Jul-16 15:34 24.240937 -132.993494 54 37094ft 510kts
02-Jul-16 15:35 24.319235 -132.864145 54 37087ft 510kts
02-Jul-16 15:36 24.397731 -132.734126 54 37087ft 510kts
02-Jul-16 15:37 24.476112 -132.603953 54 37059ft 510kts
02-Jul-16 15:38 24.554147 -132.474007 54 37045ft 510kts
02-Jul-16 15:39 24.632586 -132.343039 54 37053ft 510kts
02-Jul-16 15:40 24.710649 -132.212345 54 37059ft 510kts
02-Jul-16 15:41 24.788516 -132.081627 54 37046ft 509kts
02-Jul-16 15:42 24.866037 -131.951171 55 37044ft 510kts
02-Jul-16 15:43 24.943957 -131.819621 55 37044ft 512kts
02-Jul-16 15:44 25.021775 -131.687906 55 37042ft 512kts
02-Jul-16 15:45 25.099471 -131.556038 55 37042ft 512kts
02-Jul-16 15:46 25.177165 -131.423807 56 37042ft 513kts
02-Jul-16 15:47 25.254830 -131.291257 56 37042ft 513kts
02-Jul-16 15:48 25.332393 -131.158507 56 37042ft 513kts
02-Jul-16 15:49 25.409601 -131.025994 56 37042ft 513kts
02-Jul-16 15:50 25.487001 -130.892775 56 37042ft 513kts
02-Jul-16 15:51 25.564378 -130.759213 56 37024ft 515kts
02-Jul-16 15:52 25.641746 -130.625285 57 37024ft 515kts
02-Jul-16 15:53 25.718973 -130.491214 57 37024ft 515kts
02-Jul-16 15:54 25.795952 -130.357187 57 37024ft 516kts
02-Jul-16 15:55 25.873248 -130.222626 58 37025ft 517kts
02-Jul-16 15:56 25.950267 -130.087441 58 37025ft 516kts
02-Jul-16 15:57 26.029572 -129.954561 53 37025ft 516kts
02-Jul-16 15:58 26.119394 -129.830784 52 37019ft 512kts
02-Jul-16 15:59 26.208530 -129.705444 52 37019ft 513kts
02-Jul-16 16:00 26.297400 -129.580421 52 37019ft 514kts
02-Jul-16 16:01 26.385611 -129.455390 52 37019ft 513kts
02-Jul-16 16:02 26.473969 -129.329681 52 37020ft 514kts
02-Jul-16 16:03 26.562477 -129.203389 52 37015ft 516kts
02-Jul-16 16:04 26.650964 -129.076774 52 37016ft 516kts
02-Jul-16 16:05 26.739378 -128.949904 52 37016ft 516kts
02-Jul-16 16:06 26.827685 -128.822827 52 37017ft 517kts
02-Jul-16 16:07 26.916013 -128.695358 53 37017ft 517kts
02-Jul-16 16:08 27.004164 -128.567780 53 37018ft 517kts
02-Jul-16 16:09 27.091964 -128.440344 53 37011ft 517kts
02-Jul-16 16:10 27.180058 -128.312112 53 37010ft 517kts
02-Jul-16 16:11 27.268014 -128.183709 53 37010ft 518kts
02-Jul-16 16:12 27.355977 -128.054919 53 37032ft 518kts
02-Jul-16 16:13 27.443583 -127.926279 53 37032ft 520kts
02-Jul-16 16:14 27.531628 -127.796609 53 37033ft 520kts
02-Jul-16 16:15 27.619500 -127.666809 53 37033ft 520kts
02-Jul-16 16:16 27.706998 -127.537176 53 37033ft 520kts
02-Jul-16 16:17 27.794668 -127.406901 53 37034ft 520kts
02-Jul-16 16:18 27.882226 -127.276399 54 37038ft 520kts
02-Jul-16 16:19 27.969685 -127.145651 54 37038ft 520kts
02-Jul-16 16:20 28.057296 -127.014274 53 37038ft 520kts
02-Jul-16 16:21 28.144248 -126.883490 53 37038ft 520kts
02-Jul-16 16:22 28.231426 -126.751965 53 37039ft 520kts
02-Jul-16 16:23 28.304005 -126.642155 54 37039ft 520kts
02-Jul-16 16:24 28.405361 -126.488330 54 37039ft 520kts
02-Jul-16 16:25 28.477449 -126.378585 54 37039ft 521kts
02-Jul-16 16:26 28.564434 -126.245782 54 37040ft 521kts
02-Jul-16 16:27 28.650677 -126.113701 54 37040ft 520kts
02-Jul-16 16:28 28.736822 -125.981347 54 37040ft 521kts
02-Jul-16 16:29 28.823325 -125.848034 53 37041ft 523kts
02-Jul-16 16:30 28.910057 -125.713940 54 37049ft 522kts
02-Jul-16 16:31 28.996072 -125.580527 54 37050ft 522kts
02-Jul-16 16:32 29.082233 -125.446460 54 37051ft 522kts
02-Jul-16 16:33 29.168245 -125.312189 54 37051ft 522kts
02-Jul-16 16:34 29.254145 -125.177662 54 37051ft 522kts
02-Jul-16 16:35 29.339662 -125.043299 54 37051ft 522kts
02-Jul-16 16:36 29.425592 -124.907844 54 37052ft 522kts
02-Jul-16 16:37 29.510913 -124.772908 54 37052ft 524kts
02-Jul-16 16:38 29.596448 -124.637188 54 37052ft 523kts
02-Jul-16 16:39 29.681886 -124.501170 54 37055ft 523kts
02-Jul-16 16:40 29.766903 -124.365375 54 37058ft 524kts
02-Jul-16 16:41 29.852517 -124.228166 54 37056ft 524kts
02-Jul-16 16:42 29.937376 -124.091709 54 37067ft 524kts
02-Jul-16 16:43 30.022132 -123.954929 54 37068ft 524kts
02-Jul-16 16:44 30.106971 -123.817604 53 37068ft 524kts
02-Jul-16 16:45 30.191924 -123.679604 53 37068ft 524kts
02-Jul-16 16:46 30.276206 -123.542223 53 37068ft 524kts
02-Jul-16 16:47 30.359175 -123.402934 56 37068ft 525kts
02-Jul-16 16:48 30.435528 -123.258378 58 37068ft 525kts
02-Jul-16 16:49 30.511200 -123.113204 58 37038ft 525kts
02-Jul-16 16:50 30.586537 -122.968230 58 37039ft 525kts
02-Jul-16 16:51 30.661967 -122.822553 58 37040ft 525kts
02-Jul-16 16:52 30.737564 -122.676007 58 37049ft 527kts
02-Jul-16 16:53 30.812618 -122.529971 59 37056ft 526kts
02-Jul-16 16:54 30.887763 -122.383207 59 37067ft 527kts
02-Jul-16 16:55 30.962706 -122.236287 59 37067ft 526kts
02-Jul-16 16:56 31.037364 -122.089373 59 37050ft 528kts
02-Jul-16 16:57 31.112170 -121.941601 59 37054ft 528kts
02-Jul-16 16:58 31.187073 -121.793081 59 37063ft 530kts
02-Jul-16 16:59 31.261830 -121.644278 59 37065ft 530kts
02-Jul-16 17:00 31.336426 -121.495221 59 37066ft 530kts
02-Jul-16 17:01 31.410759 -121.346118 59 37066ft 531kts
02-Jul-16 17:02 31.485407 -121.195798 59 37066ft 531kts
02-Jul-16 17:03 31.559402 -121.046224 59 37059ft 531kts
02-Jul-16 17:04 31.633491 -120.895879 59 37059ft 531kts
02-Jul-16 17:05 31.707456 -120.745225 59 37059ft 532kts
02-Jul-16 17:06 31.781412 -120.594095 59 37055ft 532kts
02-Jul-16 17:07 31.856338 -120.443469 59 37063ft 532kts
02-Jul-16 17:08 31.930381 -120.292516 57 37058ft 533kts
02-Jul-16 17:09 32.026786 -120.160127 44 37061ft 532kts
02-Jul-16 17:10 32.128402 -120.032864 45 37056ft 532kts
02-Jul-16 17:11 32.227917 -119.907050 45 35396ft 523kts
02-Jul-16 17:12 32.328291 -119.779827 45 32483ft 529kts
02-Jul-16 17:13 32.427009 -119.653466 45 30482ft 513kts
02-Jul-16 17:14 32.521976 -119.531695 45 28508ft 495kts
02-Jul-16 17:15 32.613861 -119.413268 45 26534ft 478kts
02-Jul-16 17:16 32.702507 -119.298616 46 24573ft 462kts
02-Jul-16 17:17 32.788551 -119.187924 46 22650ft 447kts
02-Jul-16 17:18 32.871589 -119.080247 46 20762ft 433kts
02-Jul-16 17:19 32.951881 -118.975758 47 18869ft 420kts
02-Jul-16 17:20 33.028884 -118.875668 47 16366ft 402kts
02-Jul-16 17:21 33.102388 -118.779236 48 13616ft 379kts
02-Jul-16 17:22 33.159407 -118.704288 48 12293ft 362kts
02-Jul-16 17:23 33.237278 -118.602189 48 12024ft 353kts
02-Jul-16 17:24 33.292371 -118.529403 48 12027ft 353kts
02-Jul-16 17:25 33.357339 -118.441260 57 12025ft 351kts
02-Jul-16 17:26 33.388405 -118.331931 80 12029ft 347kts
02-Jul-16 17:27 33.404559 -118.217695 82 12022ft 347kts
02-Jul-16 17:28 33.441588 -118.118309 49 11941ft 319kts
02-Jul-16 17:29 33.510194 -118.054980 34 10999ft 303kts
02-Jul-16 17:30 33.582841 -118.006565 13 9789ft 300kts
02-Jul-16 17:31 33.665246 -118.012653 345 8580ft 299kts
02-Jul-16 17:32 33.744391 -118.041374 344 7443ft 292kts
02-Jul-16 17:33 33.822730 -118.056848 8 6996ft 286kts
02-Jul-16 17:34 33.900518 -118.040286 12 6849ft 270kts
02-Jul-16 17:35 33.961224 -118.078775 285 6524ft 290kts
02-Jul-16 17:36 33.959189 -118.171228 260 4478ft 279kts
02-Jul-16 17:37 33.950802 -118.251445 261 3440ft 195kts
02-Jul-16 17:38 33.928092 -118.298477 181 3379ft 183kts
02-Jul-16 17:39 33.904662 -118.246038 103 3401ft 194kts
02-Jul-16 17:40 33.894217 -118.182472 102 3377ft 189kts
02-Jul-16 17:41 33.883690 -118.119134 102 3379ft 191kts
02-Jul-16 17:42 33.897844 -118.064955 14 3368ft 196kts
02-Jul-16 17:43 33.946779 -118.085331 299 3318ft 192kts
02-Jul-16 17:44 33.962987 -118.146033 265 3374ft 190kts
02-Jul-16 17:45 33.955155 -118.209491 261 2945ft 186kts
02-Jul-16 17:46 33.949372 -118.265458 261 2053ft 149kts
02-Jul-16 17:47 33.944404 -118.314581 262 1296ft 145kts
02-Jul-16 17:48 33.939684 -118.361603 261 544ft 134kts
02-Jul-16 17:49 33.935697 -118.398783 265 140ft 36kts
02-Jul-16 17:50 33.936204 -118.404774 264 140ft 12kts
02-Jul-16 17:51 33.936744 -118.409078 347 140ft 11kts
02-Jul-16 17:52 33.937811 -118.409280 351 140ft 2kts
02-Jul-16 17:53 33.940323 -118.409263 259 140ft 0kts

Navigation Log

Ident Type
Flight plan parsing failed, navigation log unavailable